High Bar Harbor, New Jersey
Current Conditions -  °F | °C
As of 6:55 PM on Wednesday 22 Oct 2014 (Local Time) from KMJX Reporting Station
Overcast Overcast  
Wind Chill: 52°   Ceiling: 1800
Heat Index: 52°   Visibility: 10mi
Dew Point: 50°   Wind: 8mph
Humidity: 94%   Direction: 350°N
Pressure: 29.78"   Gusts: 16mph
Location:  39.623°N, 74.1974°W
Report Text: KMJX 222255Z AUTO 35007G14KT 10SM FEW011 BKN018 OVC036 11/10 A2978 RMK AO1
Loading
Personal Weather Stations






























Interactive Weather Map
Tropical Storm Tracking
New forecast layout! Learn more

10-Day Weather Forecast

Advertisements
Track Severe Weather on mobile